Time;durP1;ratioP1;P1;durP2;ratioP2;P2;SDS_P1;SDS_P2;PMS_P1;PMS_P2;Temp;Humidity;BMP_temperature;BMP_pressure;BME280_temperature;BME280_humidity;BME280_pressure;Samples;Min_cycle;Max_cycle;Signal;HPM_P1;HPM_P2
2022/08/20 00:02:12;;;;;;;;;;;;;;;24.79;52.94;101425.75;5055862;28;20033;-72
2022/08/20 00:04:37;;;;;;;56.83;53.80;;;;;;;24.76;53.34;101423.63;5055190;28;19915;-73
2022/08/20 00:07:03;;;;;;;58.38;55.45;;;;;;;24.75;53.59;101433.06;5055661;28;20025;-72
2022/08/20 00:09:28;;;;;;;54.58;51.67;;;;;;;24.73;53.43;101427.88;5054871;28;20487;-72
2022/08/20 00:11:54;;;;;;;54.08;51.38;;;;;;;24.72;53.73;101429.00;5055518;28;20342;-72
2022/08/20 00:14:19;;;;;;;54.58;51.58;;;;;;;24.71;53.74;101427.38;5055449;28;20028;-72
2022/08/20 00:16:45;;;;;;;55.38;52.53;;;;;;;24.71;53.76;101430.13;5055516;28;20116;-74
2022/08/20 00:19:10;;;;;;;56.55;53.55;;;;;;;24.69;53.59;101429.63;5055462;28;20129;-73
2022/08/20 00:21:36;;;;;;;59.75;56.65;;;;;;;24.68;53.38;101424.44;5055182;28;20036;-73
2022/08/20 00:24:03;;;;;;;60.70;57.55;;;;;;;24.66;53.63;101430.28;5054617;28;20039;-74
2022/08/20 00:26:28;;;;;;;60.38;57.22;;;;;;;24.67;53.27;101431.09;5054803;28;20117;-72
2022/08/20 00:28:54;;;;;;;57.20;54.40;;;;;;;24.66;53.22;101432.22;5054826;28;20148;-73
2022/08/20 00:31:21;;;;;;;59.25;56.05;;;;;;;24.65;53.87;101428.66;5054567;28;20028;-73
2022/08/20 00:33:47;;;;;;;57.53;54.47;;;;;;;24.63;53.40;101424.59;5054646;28;20473;-72
2022/08/20 00:36:14;;;;;;;59.22;55.25;;;;;;;24.60;53.25;101426.88;5054161;28;20037;-73
2022/08/20 00:38:42;;;;;;;60.80;57.67;;;;;;;24.60;53.92;101426.06;5054587;28;20056;-73
2022/08/20 00:41:11;;;;;;;57.30;54.22;;;;;;;24.59;53.43;101424.41;5054422;28;20037;-74
2022/08/20 00:43:41;;;;;;;61.90;58.70;;;;;;;24.58;53.45;101431.06;5054285;28;20058;-73
2022/08/20 00:46:16;;;;;;;60.20;56.78;;;;;;;24.57;53.60;101419.22;5054327;28;20028;-72
2022/08/20 00:48:46;;;;;;;58.78;55.78;;;;;;;24.56;53.72;101425.06;5054116;28;20466;-74
2022/08/20 00:51:26;;;;;;;56.47;53.13;;;;;;;24.54;53.58;101427.31;5053848;28;20025;-74
2022/08/20 00:54:01;;;;;;;57.78;54.47;;;;;;;24.52;53.82;101426.81;5054793;28;20040;-72
2022/08/20 00:56:27;;;;;;;58.78;55.65;;;;;;;24.52;53.36;101426.81;5054528;28;20032;-74
2022/08/20 00:58:53;;;;;;;57.25;54.03;;;;;;;24.51;53.57;101433.50;5054239;28;20069;-73
2022/08/20 01:01:21;;;;;;;59.75;56.45;;;;;;;24.50;53.81;101426.34;5054358;28;20392;-73
2022/08/20 01:03:47;;;;;;;;;;;;;;;24.49;53.08;101421.94;5054587;28;20457;-73
2022/08/20 01:06:12;;;;;;;57.90;54.42;;;;;;;24.46;52.90;101417.88;5053729;28;20353;-73
2022/08/20 01:08:38;;;;;;;62.42;58.72;;;;;;;24.45;53.18;101416.25;5054596;28;20376;-73
2022/08/20 01:11:20;;;;;;;61.40;57.83;;;;;;;24.45;53.16;101424.53;5053928;28;20090;-72
2022/08/20 01:13:46;;;;;;;56.95;53.30;;;;;;;24.42;53.63;101422.41;5054838;28;20373;-73
2022/08/20 01:16:30;;;;;;;59.97;56.53;;;;;;;24.42;53.42;101425.16;5054372;28;20029;-73
2022/08/20 01:18:57;;;;;;;60.05;56.30;;;;;;;24.40;53.58;101430.19;5054674;28;20033;-73
2022/08/20 01:21:30;;;;;;;63.60;60.05;;;;;;;24.39;53.75;101434.91;5053457;28;20397;-72
2022/08/20 01:24:05;;;;;;;55.80;52.50;;;;;;;24.39;53.47;101434.06;5053335;28;20029;-73
2022/08/20 01:26:37;;;;;;;57.15;53.95;;;;;;;24.37;53.41;101434.41;5053563;28;20135;-73
2022/08/20 01:29:21;;;;;;;57.70;54.28;;;;;;;24.37;53.31;101422.56;5052799;28;20471;-72
2022/08/20 01:31:47;;;;;;;55.40;51.80;;;;;;;24.34;53.47;101421.25;5053325;28;20496;-73
2022/08/20 01:34:15;;;;;;;59.28;55.88;;;;;;;24.34;53.62;101423.16;5053031;28;20032;-72
2022/08/20 01:36:53;;;;;;;57.38;53.97;;;;;;;24.34;53.23;101417.63;5054117;28;20453;-73
2022/08/20 01:39:24;;;;;;;57.60;54.10;;;;;;;24.32;53.62;101423.50;5053808;28;20037;-72
2022/08/20 01:42:07;;;;;;;59.58;55.75;;;;;;;24.32;53.28;101425.47;5053837;28;20433;-72
2022/08/20 01:44:36;;;;;;;54.75;51.50;;;;;;;24.30;53.39;101431.28;5053204;28;20439;-73
2022/08/20 01:47:13;;;;;;;56.10;52.83;;;;;;;24.29;53.14;101432.44;5053469;28;20025;-72
2022/08/20 01:49:42;;;;;;;58.60;54.83;;;;;;;24.28;53.41;101441.81;5053389;28;20033;-72
2022/08/20 01:52:11;;;;;;;59.13;55.85;;;;;;;24.27;53.03;101442.16;5053821;28;20074;-75
2022/08/20 01:54:37;;;;;;;62.60;59.05;;;;;;;24.26;52.82;101435.81;5052125;28;20052;-72
2022/08/20 01:57:15;;;;;;;61.97;58.03;;;;;;;24.25;52.98;101434.19;5053372;28;20445;-72
2022/08/20 01:59:42;;;;;;;56.35;52.92;;;;;;;24.24;53.29;101440.84;5053673;28;20071;-71
2022/08/20 02:02:09;;;;;;;62.90;59.20;;;;;;;24.23;52.93;101441.16;5053260;28;20548;-73
2022/08/20 02:04:35;;;;;;;59.80;55.83;;;;;;;24.22;53.55;101442.28;5052873;28;20392;-72
2022/08/20 02:07:04;;;;;;;58.97;55.22;;;;;;;24.20;53.17;101439.84;5053300;28;20037;-72
2022/08/20 02:09:36;;;;;;;58.83;55.33;;;;;;;24.19;53.09;101436.28;5053705;28;20137;-72
2022/08/20 02:12:03;;;;;;;58.97;55.28;;;;;;;24.18;53.69;101440.16;5052743;28;20032;-72
2022/08/20 02:14:29;;;;;;;57.53;54.08;;;;;;;24.17;53.52;101444.06;5053008;28;20044;-72
2022/08/20 02:16:57;;;;;;;57.20;52.80;;;;;;;24.16;53.58;101438.84;5053160;28;20025;-72
2022/08/20 02:19:34;;;;;;;59.75;55.75;;;;;;;24.14;53.38;101441.94;5053090;28;20044;-71
2022/08/20 02:22:20;;;;;;;60.85;57.08;;;;;;;24.14;53.69;101452.97;5052874;28;20374;-72
2022/08/20 02:24:45;;;;;;;59.75;56.00;;;;;;;24.11;53.08;101445.31;5053360;28;20021;-73
2022/08/20 02:27:11;;;;;;;59.33;55.78;;;;;;;24.09;53.31;101442.09;5053003;28;20036;-73
2022/08/20 02:29:37;;;;;;;57.50;53.97;;;;;;;24.09;53.41;101446.75;5053319;28;20074;-71
2022/08/20 02:32:05;;;;;;;58.63;55.00;;;;;;;24.08;53.12;101453.44;5053005;28;20083;-73
2022/08/20 02:34:30;;;;;;;61.20;57.37;;;;;;;24.07;53.44;101451.81;5052982;28;20033;-73
2022/08/20 02:36:56;;;;;;;59.45;55.83;;;;;;;24.05;53.38;101454.88;5051659;28;20527;-72
2022/08/20 02:39:21;;;;;;;64.47;59.92;;;;;;;24.04;53.44;101452.41;5053627;28;20029;-73
2022/08/20 02:41:48;;;;;;;60.97;57.25;;;;;;;24.04;52.95;101457.94;5053438;28;20091;-71
2022/08/20 02:44:14;;;;;;;58.08;54.47;;;;;;;24.02;53.28;101446.44;5053119;28;20041;-73
2022/08/20 02:46:39;;;;;;;56.88;53.08;;;;;;;24.00;53.13;101443.16;5053146;28;20048;-72
2022/08/20 02:49:04;;;;;;;57.88;54.22;;;;;;;23.98;52.75;101440.72;5052626;28;20120;-73
2022/08/20 02:51:30;;;;;;;58.83;55.05;;;;;;;23.98;52.78;101449.00;5052980;28;20112;-72
2022/08/20 02:53:56;;;;;;;60.72;57.22;;;;;;;23.97;52.96;101442.66;5068546;28;20078;-73
2022/08/20 02:56:21;;;;;;;60.95;57.05;;;;;;;23.96;53.35;101440.22;5052684;28;20166;-73
2022/08/20 02:58:46;;;;;;;57.35;53.85;;;;;;;23.95;53.28;101444.91;5053302;28;20036;-72
2022/08/20 03:01:16;;;;;;;56.60;53.28;;;;;;;23.93;53.23;101449.13;5052797;28;20453;-73
2022/08/20 03:03:43;;;;;;;59.22;55.25;;;;;;;23.92;53.18;101451.06;5052679;28;20029;-72
2022/08/20 03:06:09;;;;;;;57.30;53.50;;;;;;;23.91;52.83;101454.97;5052909;28;20112;-72
2022/08/20 03:08:35;;;;;;;59.97;56.30;;;;;;;23.90;52.85;101455.28;5056424;28;20029;-73
2022/08/20 03:11:01;;;;;;;62.65;58.70;;;;;;;23.90;53.13;101455.28;5056414;28;20025;-72
2022/08/20 03:13:27;;;;;;;60.25;56.33;;;;;;;23.88;52.61;101460.28;5056126;28;20078;-72
2022/08/20 03:15:55;;;;;;;57.78;53.75;;;;;;;23.87;52.64;101453.16;5056160;28;20032;-73
2022/08/20 03:18:23;;;;;;;;;;;;;;;23.86;52.30;101457.84;5056241;28;20032;-73
2022/08/20 03:20:48;;;;;;;58.28;54.28;;;;;;;23.84;52.83;101459.28;5055011;28;20318;-72
2022/08/20 03:23:15;;;;;;;56.20;52.63;;;;;;;23.82;52.52;101448.59;5038200;28;20029;-73
2022/08/20 03:25:42;;;;;;;58.08;54.47;;;;;;;23.81;52.73;101446.13;5055677;28;20033;-72
2022/08/20 03:28:07;;;;;;;57.80;54.17;;;;;;;23.80;52.95;101453.59;5056402;28;20043;-72
2022/08/20 03:30:33;;;;;;;61.33;57.00;;;;;;;23.80;52.74;101455.53;5055330;28;20049;-72
2022/08/20 03:32:59;;;;;;;53.28;50.08;;;;;;;23.78;52.86;101458.59;5055830;28;20036;-72
2022/08/20 03:35:27;;;;;;;57.03;53.13;;;;;;;23.77;52.81;101450.66;5055690;28;20029;-72
2022/08/20 03:37:52;;;;;;;56.53;52.05;;;;;;;23.75;52.59;101453.72;5055808;28;20029;-73
2022/08/20 03:40:25;;;;;;;55.95;52.05;;;;;;;23.73;52.41;101445.75;5055946;28;20040;-73
2022/08/20 03:42:54;;;;;;;56.47;52.63;;;;;;;23.73;52.77;101461.50;5055690;28;20024;-72
2022/08/20 03:45:21;;;;;;;61.45;57.13;;;;;;;23.72;52.84;101468.13;5055475;28;20512;-72
2022/08/20 03:47:48;;;;;;;55.83;52.08;;;;;;;23.71;52.86;101458.19;5055243;28;20512;-72
2022/08/20 03:50:14;;;;;;;56.13;52.22;;;;;;;23.71;52.35;101460.97;5055191;28;20392;-72
2022/08/20 03:52:39;;;;;;;56.67;53.33;;;;;;;23.69;52.57;101458.53;5055314;28;20127;-72
2022/08/20 03:55:09;;;;;;;56.58;52.97;;;;;;;23.68;52.94;101464.34;5055197;28;20116;-72
2022/08/20 03:57:35;;;;;;;57.88;54.67;;;;;;;23.66;52.92;101469.34;5055852;28;20036;-71
2022/08/20 04:00:03;;;;;;;55.75;51.95;;;;;;;23.65;52.46;101468.53;5056148;28;20032;-72
2022/08/20 04:02:28;;;;;;;58.87;55.23;;;;;;;23.64;52.31;101471.63;5055439;28;20033;-73
2022/08/20 04:04:54;;;;;;;57.67;54.13;;;;;;;23.63;52.79;101479.06;5054976;28;20270;-72
2022/08/20 04:07:26;;;;;;;57.78;53.75;;;;;;;23.62;52.42;101479.41;5054884;28;20053;-72
2022/08/20 04:09:53;;;;;;;56.17;51.63;;;;;;;23.61;52.62;101478.59;5055115;28;20531;-73
2022/08/20 04:12:18;;;;;;;56.88;53.35;;;;;;;23.60;53.04;101478.91;5055045;28;20123;-72
2022/08/20 04:14:44;;;;;;;57.22;53.83;;;;;;;23.58;52.99;101479.19;5054728;28;20485;-72
2022/08/20 04:17:12;;;;;;;56.63;52.97;;;;;;;23.57;52.67;101488.63;5054112;28;20382;-72
2022/08/20 04:19:39;;;;;;;55.85;51.75;;;;;;;23.55;52.95;101479.84;5054289;28;20421;-73
2022/08/20 04:22:06;;;;;;;52.88;49.47;;;;;;;23.54;52.55;101487.28;5053930;28;20037;-73
2022/08/20 04:24:33;;;;;;;54.15;50.70;;;;;;;23.54;52.52;101483.72;5054740;28;20476;-72
2022/08/20 04:27:01;;;;;;;58.10;54.25;;;;;;;23.51;53.13;101487.09;5055318;28;20052;-73
2022/08/20 04:29:27;;;;;;;58.85;55.22;;;;;;;23.50;52.89;101477.19;5054415;28;20041;-71
2022/08/20 04:31:53;;;;;;;56.70;52.95;;;;;;;23.49;52.67;101481.91;5055195;28;20056;-72
2022/08/20 04:34:18;;;;;;;56.85;53.40;;;;;;;23.48;52.57;101485.78;5070101;28;20465;-72
2022/08/20 04:36:46;;;;;;;55.67;52.05;;;;;;;23.48;53.06;101490.47;5054571;28;20461;-73
2022/08/20 04:39:15;;;;;;;55.15;51.17;;;;;;;23.46;52.77;101496.31;5054878;28;20116;-73
2022/08/20 04:41:41;;;;;;;55.10;51.10;;;;;;;23.45;52.94;101496.63;5054402;28;20361;-73
2022/08/20 04:44:08;;;;;;;53.38;49.78;;;;;;;23.45;52.76;101494.66;5054497;28;20037;-74
2022/08/20 04:46:33;;;;;;;54.40;50.85;;;;;;;23.42;53.09;101494.50;5055076;28;20421;-72
2022/08/20 04:49:00;;;;;;;57.13;53.10;;;;;;;23.42;53.02;101498.06;5053103;28;20512;-73
2022/08/20 04:51:25;;;;;;;56.90;52.97;;;;;;;23.41;52.92;101495.59;5054435;28;20037;-75
2022/08/20 04:53:56;;;;;;;56.53;53.10;;;;;;;23.39;52.85;101498.69;5053197;28;20055;-73
2022/08/20 04:56:24;;;;;;;54.85;51.20;;;;;;;23.39;52.82;101500.63;5054765;28;20133;-74
2022/08/20 04:58:51;;;;;;;53.65;50.45;;;;;;;23.37;52.92;101506.44;5054210;28;20385;-74
2022/08/20 05:01:17;;;;;;;57.83;54.05;;;;;;;23.37;52.63;101508.41;5053846;28;20426;-72
2022/08/20 05:03:43;;;;;;;59.40;55.38;;;;;;;23.36;52.75;101520.53;5053784;28;20067;-73
2022/08/20 05:06:11;;;;;;;55.03;50.90;;;;;;;23.35;53.22;101502.38;5054046;28;20133;-73
2022/08/20 05:08:38;;;;;;;54.13;50.58;;;;;;;23.32;52.49;101510.13;5054007;28;20036;-73
2022/08/20 05:11:05;;;;;;;55.22;51.30;;;;;;;23.32;52.55;101512.88;5069182;28;20519;-75
2022/08/20 05:13:30;;;;;;;56.53;52.35;;;;;;;23.30;53.11;101511.56;5053871;28;20039;-74
2022/08/20 05:15:58;;;;;;;56.25;52.35;;;;;;;23.29;52.87;101515.47;5053944;28;20033;-72
2022/08/20 05:18:26;;;;;;;54.83;50.42;;;;;;;23.28;52.77;101524.84;5053867;28;20140;-72
2022/08/20 05:20:53;;;;;;;51.45;47.65;;;;;;;23.26;53.13;101527.13;5054104;28;20120;-72
2022/08/20 05:23:19;;;;;;;54.45;50.97;;;;;;;23.25;52.95;101537.28;5086103;28;20469;-72
2022/08/20 05:25:48;;;;;;;58.30;54.03;;;;;;;23.26;53.06;101529.88;5053725;28;20055;-73
2022/08/20 05:28:24;;;;;;;56.50;52.72;;;;;;;23.24;52.99;101534.88;5053754;28;20025;-74
2022/08/20 05:30:50;;;;;;;58.60;54.25;;;;;;;23.23;53.29;101535.97;5051447;28;20431;-73
2022/08/20 05:33:18;;;;;;;56.47;53.00;;;;;;;23.22;53.47;101540.69;5052572;28;20044;-72
2022/08/20 05:35:46;;;;;;;53.58;49.65;;;;;;;23.21;53.32;101535.47;5053606;28;20036;-72
2022/08/20 05:38:14;;;;;;;55.45;52.08;;;;;;;23.20;53.38;101540.16;5053551;28;20029;-73
2022/08/20 05:40:41;;;;;;;55.47;52.03;;;;;;;23.18;53.20;101550.69;5053174;28;20033;-73
2022/08/20 05:43:07;;;;;;;58.35;54.17;;;;;;;23.18;52.82;101544.34;5053470;28;20072;-73
2022/08/20 05:45:36;;;;;;;57.20;53.80;;;;;;;23.17;52.95;101548.25;5053402;28;20052;-74
2022/08/20 05:48:11;;;;;;;55.25;51.47;;;;;;;23.16;53.40;101541.09;5053385;28;20145;-73
2022/08/20 05:50:38;;;;;;;56.13;52.25;;;;;;;23.15;53.40;101542.22;5052921;28;20025;-73
2022/08/20 05:53:04;;;;;;;57.08;53.05;;;;;;;23.13;53.31;101537.00;5053368;28;20028;-73
2022/08/20 05:55:30;;;;;;;54.63;50.45;;;;;;;23.13;53.19;101541.72;5053311;28;20376;-73
2022/08/20 05:57:57;;;;;;;54.97;51.58;;;;;;;23.11;53.00;101551.13;5068479;28;20179;-73
2022/08/20 06:00:23;;;;;;;58.07;54.03;;;;;;;23.11;53.46;101544.78;5053594;28;20056;-72
2022/08/20 06:05:33;;;;;;;56.58;52.47;;;;;;;23.09;53.43;101552.53;5053281;28;20052;-72
2022/08/20 06:07:59;;;;;;;56.70;51.75;;;;;;;23.09;53.11;101552.53;5053715;28;20030;-72
2022/08/20 06:10:24;;;;;;;54.60;51.03;;;;;;;23.07;53.01;101550.09;5052859;28;20039;-72
2022/08/20 06:12:52;;;;;;;56.00;51.50;;;;;;;23.06;53.08;101555.91;5053335;28;20059;-73
2022/08/20 06:15:18;;;;;;;56.88;52.83;;;;;;;23.06;53.33;101559.50;5053405;28;20422;-74
2022/08/20 06:17:44;;;;;;;59.45;55.17;;;;;;;23.05;53.02;101559.78;5052847;28;20039;-73
2022/08/20 06:20:10;;;;;;;56.50;52.30;;;;;;;23.05;53.15;101559.78;5053060;28;20056;-76
2022/08/20 06:22:36;;;;;;;54.40;50.55;;;;;;;23.05;53.28;101554.28;5052983;28;20040;-72
2022/08/20 06:25:04;;;;;;;54.33;50.95;;;;;;;23.04;53.47;101560.91;5069055;28;20624;-73
2022/08/20 06:27:30;;;;;;;56.05;51.90;;;;;;;23.03;53.50;101564.78;5053383;28;20033;-80
2022/08/20 06:29:55;;;;;;;58.20;53.75;;;;;;;23.02;53.05;101558.47;5053268;28;20408;-73
2022/08/20 06:32:23;;;;;;;53.22;49.67;;;;;;;23.02;53.16;101560.41;5052939;28;20392;-73
2022/08/20 06:34:50;;;;;;;56.22;52.67;;;;;;;23.02;53.56;101560.41;5052965;28;20032;-73
2022/08/20 06:37:25;;;;;;;56.58;52.25;;;;;;;23.01;53.75;101561.53;5053511;28;20037;-72
2022/08/20 06:39:51;;;;;;;57.75;53.33;;;;;;;23.01;53.71;101567.06;5052548;28;20079;-73
2022/08/20 06:42:18;;;;;;;56.40;51.67;;;;;;;23.00;53.40;101557.94;5056054;28;20148;-74
2022/08/20 06:44:49;;;;;;;58.90;54.78;;;;;;;22.99;53.73;101561.84;5057219;28;20029;-72
2022/08/20 06:47:17;;;;;;;57.10;52.80;;;;;;;23.00;53.84;101568.16;5056398;28;20033;-73
2022/08/20 06:49:43;;;;;;;57.60;53.27;;;;;;;22.99;53.50;101563.78;5056572;28;20469;-73
2022/08/20 06:52:08;;;;;;;57.03;52.95;;;;;;;22.99;53.42;101559.09;5057084;28;20378;-74
2022/08/20 06:54:34;;;;;;;56.58;52.83;;;;;;;22.99;53.63;101558.28;5056516;28;20112;-74
2022/08/20 06:57:01;;;;;;;59.55;54.25;;;;;;;22.98;53.93;101565.72;5056235;28;20393;-75
2022/08/20 06:59:27;;;;;;;57.80;53.67;;;;;;;22.99;53.56;101566.53;5056212;28;20086;-73
2022/08/20 07:01:55;;;;;;;57.75;53.40;;;;;;;22.99;53.39;101563.78;5055185;28;20116;-73
2022/08/20 07:04:22;;;;;;;58.60;54.53;;;;;;;22.98;53.85;101576.75;5056128;28;20484;-77
2022/08/20 07:06:50;;;;;;;55.47;51.67;;;;;;;22.98;53.56;101582.25;5055018;28;20491;-73
2022/08/20 07:09:17;;;;;;;56.80;52.33;;;;;;;22.97;53.35;101586.13;5056600;28;20110;-73
2022/08/20 07:11:43;;;;;;;56.60;52.63;;;;;;;22.97;53.59;101594.38;5056378;28;20037;-74
2022/08/20 07:14:08;;;;;;;55.65;52.03;;;;;;;22.97;53.51;101590.78;5056179;28;20191;-72
2022/08/20 07:16:34;;;;;;;57.05;53.00;;;;;;;22.97;53.09;101591.63;5054783;28;20546;-73
2022/08/20 07:18:59;;;;;;;55.53;51.92;;;;;;;22.98;53.57;101592.44;5055788;28;20033;-72
2022/08/20 07:21:24;;;;;;;54.70;51.10;;;;;;;22.97;53.10;101585.28;5056585;28;20488;-73
2022/08/20 07:23:51;;;;;;;57.33;53.17;;;;;;;22.96;53.03;101589.97;5055504;28;20041;-77
2022/08/20 07:26:18;;;;;;;54.10;50.25;;;;;;;22.96;53.01;101598.25;5056117;28;20033;-73
2022/08/20 07:28:44;;;;;;;57.88;53.65;;;;;;;22.96;53.07;101602.94;5055543;28;20479;-76
2022/08/20 07:33:53;;;;;;;54.15;50.70;;;;;;;22.97;52.87;101612.81;5056034;28;20148;-72
2022/08/20 07:36:19;;;;;;;52.80;49.38;;;;;;;22.96;53.29;101617.53;5055022;28;20057;-73
2022/08/20 07:38:46;;;;;;;59.55;55.45;;;;;;;22.97;53.46;101616.44;5055635;28;20037;-72
2022/08/20 07:41:13;;;;;;;57.70;53.70;;;;;;;22.98;53.01;101622.75;5055976;28;20179;-71
2022/08/20 07:43:40;;;;;;;58.63;54.17;;;;;;;22.97;53.30;101621.09;5055780;28;20472;-72
2022/08/20 07:46:08;;;;;;;58.03;53.42;;;;;;;22.99;53.36;101624.41;5055806;28;20025;-73
2022/08/20 07:48:40;;;;;;;55.50;51.78;;;;;;;22.98;53.54;101620.00;5055171;28;20037;-72
2022/08/20 07:51:07;;;;;;;56.05;52.33;;;;;;;22.98;53.52;101617.22;5055454;28;20032;-75
2022/08/20 07:53:36;;;;;;;55.90;51.78;;;;;;;22.98;53.35;101617.22;5055140;28;20116;-72
2022/08/20 07:56:05;;;;;;;56.00;51.72;;;;;;;22.99;53.28;101618.88;5055383;28;20429;-73
2022/08/20 07:58:31;;;;;;;57.83;54.03;;;;;;;22.99;53.73;101624.41;5055581;28;20102;-72
2022/08/20 08:00:56;;;;;;;60.15;55.90;;;;;;;22.99;53.63;101625.22;5055307;28;20104;-72
2022/08/20 08:03:21;;;;;;;55.80;52.35;;;;;;;23.01;53.57;101635.94;5054959;28;20057;-72
2022/08/20 08:05:50;;;;;;;58.70;54.53;;;;;;;23.02;53.90;101637.56;5055445;28;20040;-75
2022/08/20 08:08:23;;;;;;;56.92;53.40;;;;;;;23.03;54.25;101637.25;5055066;28;20469;-72
2022/08/20 08:10:54;;;;;;;60.53;56.40;;;;;;;23.05;54.04;101640.50;5055822;28;20484;-73
2022/08/20 08:13:20;;;;;;;56.72;52.75;;;;;;;23.07;54.45;101640.22;5054917;28;20021;-71
2022/08/20 08:15:48;;;;;;;55.75;51.42;;;;;;;23.08;54.22;101628.91;5053655;28;20048;-72
2022/08/20 08:18:19;;;;;;;;;;;;;;;23.11;53.87;101638.50;5053742;28;20056;-72
2022/08/20 08:20:45;;;;;;;54.85;51.35;;;;;;;23.13;53.84;101635.41;5054876;28;19915;-72
2022/08/20 08:23:11;;;;;;;55.92;52.33;;;;;;;23.15;53.93;101633.97;5054610;28;20029;-72
2022/08/20 08:25:41;;;;;;;54.30;50.70;;;;;;;23.17;53.88;101641.97;5054776;28;20040;-72
2022/08/20 08:28:10;;;;;;;54.60;50.67;;;;;;;23.21;54.57;101641.03;5054743;28;20068;-72
2022/08/20 08:30:37;;;;;;;55.45;51.58;;;;;;;23.24;54.31;101639.63;5055475;28;20087;-72
2022/08/20 08:35:46;;;;;;;53.03;49.50;;;;;;;23.30;53.96;101647.44;5055081;28;20044;-71
2022/08/20 08:38:12;;;;;;;54.55;50.90;;;;;;;23.32;54.25;101647.97;5054879;28;20029;-72
2022/08/20 08:40:38;;;;;;;54.97;51.42;;;;;;;23.37;54.05;101647.06;5053164;28;20037;-72
2022/08/20 08:43:04;;;;;;;58.95;55.35;;;;;;;23.41;54.42;101645.31;5054368;28;20105;-72
2022/08/20 08:45:44;;;;;;;56.50;52.83;;;;;;;23.45;54.31;101648.28;5054034;28;20068;-71
2022/08/20 08:48:12;;;;;;;57.83;54.00;;;;;;;23.49;53.90;101641.84;5054487;28;20444;-72
2022/08/20 08:50:39;;;;;;;;;;;;;;;23.52;53.76;101643.16;5054814;28;20051;-72
2022/08/20 08:53:04;;;;;;;55.08;51.40;;;;;;;23.55;53.85;101645.28;5054106;28;19923;-73
2022/08/20 08:55:31;;;;;;;56.13;52.00;;;;;;;23.58;53.64;101643.84;5053057;28;20037;-74
2022/08/20 08:57:59;;;;;;;57.17;53.35;;;;;;;23.61;53.51;101638.56;5053806;28;20117;-73
2022/08/20 09:00:27;;;;;;;;;;;;;;;23.65;53.48;101641.50;5054866;28;20060;-72
2022/08/20 09:03:01;;;;;;;55.00;50.97;;;;;;;23.68;53.20;101643.63;5053957;28;20391;-72
2022/08/20 09:05:35;;;;;;;52.13;48.85;;;;;;;23.72;53.29;101650.19;5054225;28;20025;-73
2022/08/20 09:08:02;;;;;;;55.75;51.65;;;;;;;23.77;53.53;101660.31;5053913;28;20035;-72
2022/08/20 09:10:28;;;;;;;52.80;49.40;;;;;;;23.80;52.80;101660.50;5053930;28;20184;-72
2022/08/20 09:12:53;;;;;;;55.08;51.83;;;;;;;23.84;53.18;101656.00;5053777;28;20029;-73
2022/08/20 09:15:20;;;;;;;55.13;52.03;;;;;;;23.87;52.99;101655.38;5054125;28;20441;-72
2022/08/20 09:17:45;;;;;;;53.13;50.05;;;;;;;23.91;52.87;101658.31;5054200;28;20039;-73
2022/08/20 09:20:11;;;;;;;54.78;51.42;;;;;;;23.95;52.54;101656.59;5054217;28;20127;-72
2022/08/20 09:22:36;;;;;;;51.97;49.10;;;;;;;23.99;52.17;101654.84;5054225;28;20040;-73
2022/08/20 09:25:03;;;;;;;53.13;49.92;;;;;;;24.03;52.50;101655.03;5053448;28;20139;-72
2022/08/20 09:27:30;;;;;;;53.58;50.55;;;;;;;24.05;52.09;101653.59;5052415;28;20040;-71
2022/08/20 09:29:55;;;;;;;54.67;51.15;;;;;;;24.10;51.86;101647.13;5053095;28;20099;-72
2022/08/20 09:32:23;;;;;;;53.42;50.65;;;;;;;24.13;52.20;101640.97;5053902;28;20420;-73
2022/08/20 09:34:54;;;;;;;54.53;50.80;;;;;;;24.16;52.12;101635.63;5053425;28;20029;-73
2022/08/20 09:37:23;;;;;;;52.42;49.58;;;;;;;24.18;51.75;101633.38;5054405;28;20045;-74
2022/08/20 09:39:49;;;;;;;54.88;51.78;;;;;;;24.23;51.77;101629.69;5053164;28;20040;-73
2022/08/20 09:42:20;;;;;;;51.55;48.85;;;;;;;24.27;51.00;101636.22;5053270;28;20428;-73
2022/08/20 09:44:46;;;;;;;53.28;50.00;;;;;;;24.30;51.02;101634.78;5052118;28;20029;-75
2022/08/20 09:47:11;;;;;;;55.55;52.65;;;;;;;24.33;50.98;101636.91;5052912;28;20044;-72
2022/08/20 09:49:37;;;;;;;55.83;52.38;;;;;;;24.37;50.80;101632.41;5053006;28;20120;-72
2022/08/20 09:52:06;;;;;;;52.72;49.75;;;;;;;24.40;50.03;101626.25;5053171;28;20033;-72
2022/08/20 09:54:33;;;;;;;53.15;50.38;;;;;;;24.44;49.76;101637.47;5053059;28;20400;-73
2022/08/20 09:57:05;;;;;;;55.72;53.03;;;;;;;24.47;49.96;101639.63;5053232;28;20040;-74
2022/08/20 09:59:32;;;;;;;54.38;51.55;;;;;;;24.49;50.04;101634.59;5053981;28;20033;-72
2022/08/20 10:01:57;;;;;;;53.47;50.80;;;;;;;24.53;50.06;101628.13;5052950;28;20032;-71
2022/08/20 10:04:23;;;;;;;57.20;53.83;;;;;;;24.55;49.69;101636.94;5052014;28;20033;-73
2022/08/20 10:06:49;;;;;;;53.83;50.50;;;;;;;24.58;49.87;101629.94;5053642;28;20040;-72
2022/08/20 10:09:14;;;;;;;54.08;51.28;;;;;;;24.63;50.14;101629.00;5053236;28;20492;-72
2022/08/20 10:11:40;;;;;;;55.92;53.15;;;;;;;24.67;49.49;101647.41;5053661;28;20468;-72
2022/08/20 10:14:07;;;;;;;62.45;58.72;;;;;;;24.70;49.47;101632.94;5053085;28;20446;-73
2022/08/20 10:16:33;;;;;;;55.92;52.50;;;;;;;24.74;49.27;101636.69;5054646;28;20037;-76
2022/08/20 10:18:59;;;;;;;55.03;51.92;;;;;;;24.76;49.66;101630.84;5056935;28;20373;-74
2022/08/20 10:21:24;;;;;;;55.03;52.10;;;;;;;24.81;49.38;101639.00;5057962;28;20039;-73
2022/08/20 10:23:49;;;;;;;56.33;53.00;;;;;;;24.84;49.30;101630.06;5039486;28;20119;-73
2022/08/20 10:26:16;;;;;;;55.22;51.97;;;;;;;24.88;49.12;101639.38;5057656;28;20111;-75
2022/08/20 10:28:42;;;;;;;57.97;54.72;;;;;;;24.92;48.84;101636.78;5055838;28;20118;-72
2022/08/20 10:31:09;;;;;;;60.28;56.95;;;;;;;24.95;48.71;101642.50;5057232;28;20052;-73
2022/08/20 10:33:35;;;;;;;57.45;54.50;;;;;;;24.99;48.61;101649.00;5057015;28;20037;-72
2022/08/20 10:36:15;;;;;;;61.65;57.92;;;;;;;25.03;48.46;101652.78;5056893;28;20033;-72
2022/08/20 10:38:41;;;;;;;52.92;50.17;;;;;;;25.07;48.78;101646.59;5057353;28;20037;-72
2022/08/20 10:41:07;;;;;;;55.13;52.33;;;;;;;25.10;48.92;101643.19;5056803;28;20037;-73
2022/08/20 10:43:32;;;;;;;57.30;54.17;;;;;;;25.14;48.53;101646.94;5055532;28;20358;-72
2022/08/20 10:45:58;;;;;;;56.33;52.80;;;;;;;25.18;48.79;101648.00;5055518;28;20699;-71
2022/08/20 10:48:24;;;;;;;59.45;55.95;;;;;;;25.22;48.63;101647.03;5057149;28;20369;-72
2022/08/20 10:50:49;;;;;;;58.60;55.40;;;;;;;25.25;48.42;101645.56;5056703;28;20029;-72
2022/08/20 10:53:16;;;;;;;56.97;53.97;;;;;;;25.29;48.44;101651.28;5056465;28;20420;-71
2022/08/20 10:55:41;;;;;;;58.00;54.50;;;;;;;25.32;47.94;101648.66;5056785;28;20040;-73
2022/08/20 10:58:07;;;;;;;62.45;59.03;;;;;;;25.36;47.98;101654.38;5055268;28;20025;-73
2022/08/20 11:00:34;;;;;;;57.35;54.45;;;;;;;25.39;47.91;101649.00;5056422;28;20154;-72
2022/08/20 11:03:00;;;;;;;59.63;56.60;;;;;;;25.44;47.52;101653.59;5054814;28;20044;-74
2022/08/20 11:05:25;;;;;;;58.55;55.40;;;;;;;25.45;47.77;101647.75;5056350;28;20029;-73
2022/08/20 11:07:53;;;;;;;58.60;55.65;;;;;;;25.49;47.49;101653.44;5056870;28;20025;-72
2022/08/20 11:10:19;;;;;;;62.63;59.53;;;;;;;25.52;47.88;101647.25;5056273;28;20476;-74
2022/08/20 11:12:45;;;;;;;59.65;56.42;;;;;;;25.57;46.96;101649.06;5056336;28;20079;-74
2022/08/20 11:15:10;;;;;;;62.63;59.40;;;;;;;25.59;47.26;101646.78;5056755;28;20064;-73
2022/08/20 11:17:40;;;;;;;61.90;58.70;;;;;;;25.62;47.28;101646.13;5056402;28;20036;-72
2022/08/20 11:20:06;;;;;;;61.85;58.30;;;;;;;25.64;46.74;101652.97;5056083;28;20457;-73
2022/08/20 11:22:32;;;;;;;59.60;56.70;;;;;;;25.67;46.75;101655.09;5056144;28;20386;-75